Time;durP1;ratioP1;P1;durP2;ratioP2;P2;SDS_P1;SDS_P2;PMS_P1;PMS_P2;Temp;Humidity;BMP_temperature;BMP_pressure;BME280_temperature;BME280_humidity;BME280_pressure;Samples;Min_cycle;Max_cycle;Signal;HPM_P1;HPM_P2
2023/01/03 00:01:37;;;;;;;0.00;0.00;;;8.40;99.90;;;;;;5012994;28;20229;-72
2023/01/03 00:04:03;;;;;;;0.00;0.00;;;8.30;99.90;;;;;;5012316;28;20183;-72
2023/01/03 00:06:42;;;;;;;0.00;0.00;;;8.30;99.90;;;;;;4994382;28;20201;-73
2023/01/03 00:09:11;;;;;;;0.00;0.00;;;8.20;99.90;;;;;;4995938;28;20181;-72
2023/01/03 00:14:26;;;;;;;0.00;0.00;;;8.10;99.90;;;;;;5001828;28;20285;-72
2023/01/03 00:16:57;;;;;;;0.00;0.00;;;8.10;99.90;;;;;;5011912;28;20273;-71
2023/01/03 00:19:24;;;;;;;0.20;0.20;;;8.10;99.90;;;;;;5011881;28;20175;-72
2023/01/03 00:21:50;;;;;;;0.00;0.00;;;8.10;99.90;;;;;;4994013;28;20748;-72
2023/01/03 00:24:16;;;;;;;0.00;0.00;;;8.10;99.90;;;;;;5012327;28;20253;-71
2023/01/03 00:26:42;;;;;;;0.00;0.00;;;8.10;99.90;;;;;;5012172;28;20187;-71
2023/01/03 00:29:08;;;;;;;0.00;0.00;;;8.00;99.90;;;;;;5001735;28;20211;-71
2023/01/03 00:31:35;;;;;;;0.00;0.00;;;8.00;99.90;;;;;;4985537;28;20191;-72
2023/01/03 00:34:01;;;;;;;0.00;0.00;;;8.00;99.90;;;;;;5011800;28;20261;-72
2023/01/03 00:36:26;;;;;;;0.10;0.10;;;8.00;99.90;;;;;;5012129;28;20322;-72
2023/01/03 00:38:52;;;;;;;0.00;0.00;;;8.00;99.90;;;;;;5011147;28;20186;-72
2023/01/03 00:41:18;;;;;;;0.10;0.10;;;8.00;99.90;;;;;;4994412;28;20194;-73
2023/01/03 00:43:45;;;;;;;0.00;0.00;;;8.00;99.90;;;;;;5012233;28;20186;-72
2023/01/03 00:46:12;;;;;;;0.00;0.00;;;8.00;99.90;;;;;;5011917;28;20524;-73
2023/01/03 00:48:39;;;;;;;0.00;0.00;;;8.00;99.90;;;;;;5011862;28;20198;-72
2023/01/03 00:51:16;;;;;;;0.00;0.00;;;8.00;99.90;;;;;;5011736;28;20191;-72
2023/01/03 00:53:44;;;;;;;0.00;0.00;;;8.00;99.90;;;;;;5010529;28;20226;-72
2023/01/03 00:56:12;;;;;;;0.00;0.00;;;8.00;99.90;;;;;;5011623;28;20236;-72
2023/01/03 00:58:39;;;;;;;0.00;0.00;;;8.00;99.90;;;;;;5011226;28;20217;-73
2023/01/03 01:01:06;;;;;;;0.00;0.00;;;8.00;99.90;;;;;;5011990;28;20201;-73
2023/01/03 01:03:33;;;;;;;0.00;0.00;;;8.00;99.90;;;;;;4994396;28;20186;-72
2023/01/03 01:05:59;;;;;;;0.00;0.00;;;8.00;99.90;;;;;;5011942;28;20243;-72
2023/01/03 01:08:24;;;;;;;0.00;0.00;;;8.00;99.90;;;;;;4994132;28;20565;-72
2023/01/03 01:11:02;;;;;;;0.00;0.00;;;8.10;99.90;;;;;;5011416;28;20197;-72
2023/01/03 01:13:30;;;;;;;0.00;0.00;;;8.10;99.90;;;;;;5007464;28;20320;-72
2023/01/03 01:16:00;;;;;;;0.00;0.00;;;8.10;99.90;;;;;;5000384;28;20720;-72
2023/01/03 01:18:26;;;;;;;0.00;0.00;;;8.10;99.90;;;;;;5011595;28;20209;-71
2023/01/03 01:20:51;;;;;;;0.00;0.00;;;8.10;99.90;;;;;;4993379;28;20599;-72
2023/01/03 01:23:17;;;;;;;0.00;0.00;;;8.20;99.90;;;;;;5011098;28;20183;-72
2023/01/03 01:25:42;;;;;;;0.00;0.00;;;8.20;99.90;;;;;;5011251;28;20190;-71
2023/01/03 01:28:08;;;;;;;0.00;0.00;;;8.20;99.90;;;;;;5002270;28;20190;-72
2023/01/03 01:30:35;;;;;;;0.00;0.00;;;8.20;99.90;;;;;;5015910;28;20237;-71
2023/01/03 01:33:01;;;;;;;0.00;0.00;;;8.20;99.90;;;;;;5015676;28;20209;-71
2023/01/03 01:35:26;;;;;;;0.00;0.00;;;8.10;99.90;;;;;;5015187;28;20178;-71
2023/01/03 01:37:52;;;;;;;0.20;0.20;;;8.10;99.90;;;;;;5015224;28;20217;-71
2023/01/03 01:40:18;;;;;;;0.00;0.00;;;8.10;99.90;;;;;;5015427;28;20513;-71
2023/01/03 01:45:27;;;;;;;0.00;0.00;;;8.00;99.90;;;;;;4995994;28;20238;-71
2023/01/03 01:48:00;;;;;;;0.00;0.00;;;8.00;99.90;;;;;;5010548;28;20182;-71
2023/01/03 01:50:36;;;;;;;0.00;0.00;;;8.00;99.90;;;;;;5015365;28;20190;-71
2023/01/03 01:53:34;;;;;;;0.00;0.00;;;8.00;99.90;;;;;;5014728;28;20218;-72
2023/01/03 01:56:06;;;;;;;0.00;0.00;;;7.90;99.90;;;;;;5001965;28;20594;-72
2023/01/03 01:58:36;;;;;;;0.00;0.00;;;7.90;99.90;;;;;;5015412;28;20183;-72
2023/01/03 02:01:05;;;;;;;0.00;0.00;;;7.80;99.90;;;;;;5014727;28;20182;-72
2023/01/03 02:03:31;;;;;;;0.00;0.00;;;7.70;99.90;;;;;;5014798;28;20568;-72
2023/01/03 02:05:59;;;;;;;0.00;0.00;;;7.70;99.90;;;;;;5014916;28;20221;-74
2023/01/03 02:08:24;;;;;;;0.22;0.22;;;7.60;99.90;;;;;;5014338;28;20209;-72
2023/01/03 02:11:04;;;;;;;0.00;0.00;;;7.60;99.90;;;;;;4993693;28;20179;-72
2023/01/03 02:13:34;;;;;;;0.00;0.00;;;7.50;99.90;;;;;;5014516;28;20182;-71
2023/01/03 02:16:33;;;;;;;0.00;0.00;;;7.50;99.90;;;;;;5014440;28;20209;-72
2023/01/03 02:19:35;;;;;;;0.00;0.00;;;7.50;99.90;;;;;;4980033;28;20195;-72
2023/01/03 02:22:46;;;;;;;0.00;0.00;;;7.50;99.90;;;;;;5011971;28;20199;-71
2023/01/03 02:25:12;;;;;;;0.00;0.00;;;7.50;99.90;;;;;;5013844;28;20193;-72
2023/01/03 02:27:56;;;;;;;0.00;0.00;;;7.50;99.90;;;;;;5014589;28;20530;-72
2023/01/03 02:30:31;;;;;;;0.00;0.00;;;7.50;99.90;;;;;;4997380;28;20720;-72
2023/01/03 02:33:07;;;;;;;0.10;0.10;;;7.50;99.90;;;;;;4997012;28;20273;-72
2023/01/03 02:35:45;;;;;;;0.00;0.00;;;7.50;99.90;;;;;;5014003;28;20187;-72
2023/01/03 02:38:22;;;;;;;0.00;0.00;;;7.50;99.90;;;;;;4996283;28;20186;-72
2023/01/03 02:41:10;;;;;;;0.22;0.22;;;7.50;99.90;;;;;;5014260;28;20216;-72
2023/01/03 02:43:39;;;;;;;0.00;0.00;;;7.50;99.90;;;;;;4995445;28;20179;-72
2023/01/03 02:46:28;;;;;;;0.00;0.00;;;7.40;99.90;;;;;;5014437;28;20253;-72
2023/01/03 02:49:07;;;;;;;0.00;0.00;;;7.40;99.90;;;;;;5013882;28;20174;-72
2023/01/03 02:51:44;;;;;;;0.00;0.00;;;7.30;99.90;;;;;;4996470;28;20638;-71
2023/01/03 02:54:19;;;;;;;0.00;0.00;;;7.30;99.90;;;;;;5013707;28;20231;-72
2023/01/03 02:57:02;;;;;;;0.00;0.00;;;7.30;99.90;;;;;;5014005;28;20221;-71
2023/01/03 02:59:44;;;;;;;0.00;0.00;;;7.30;99.90;;;;;;5013778;28;20194;-72
2023/01/03 03:02:11;;;;;;;0.00;0.00;;;7.30;99.90;;;;;;5013923;28;20174;-72
2023/01/03 03:04:38;;;;;;;0.00;0.00;;;7.30;99.90;;;;;;5013831;28;20175;-71
2023/01/03 03:07:18;;;;;;;0.40;0.40;;;7.30;99.90;;;;;;5013875;28;20186;-73
2023/01/03 03:15:15;;;;;;;0.00;0.00;;;7.20;99.90;;;;;;5013966;28;20186;-72
2023/01/03 03:17:43;;;;;;;0.00;0.00;;;7.20;99.90;;;;;;4995720;28;20210;-72
2023/01/03 03:26:06;;;;;;;0.00;0.00;;;7.10;99.90;;;;;;5012886;28;20643;-71
2023/01/03 03:28:37;;;;;;;0.00;0.00;;;7.10;99.90;;;;;;5013114;28;20261;-72
2023/01/03 03:31:18;;;;;;;0.00;0.00;;;7.10;99.90;;;;;;4997483;28;20198;-72
2023/01/03 03:33:52;;;;;;;0.00;0.00;;;7.00;99.90;;;;;;5013288;28;20277;-72
2023/01/03 03:36:25;;;;;;;0.00;0.00;;;7.00;99.90;;;;;;5010338;28;20558;-71
2023/01/03 03:38:50;;;;;;;0.00;0.00;;;7.00;99.90;;;;;;5012975;28;20648;-72
2023/01/03 03:47:23;;;;;;;0.00;0.00;;;6.90;99.90;;;;;;5013005;28;20193;-72
2023/01/03 03:49:52;;;;;;;0.00;0.00;;;6.70;99.90;;;;;;5012303;28;20186;-73
2023/01/03 03:52:23;;;;;;;0.00;0.00;;;6.70;99.90;;;;;;5012112;28;20209;-72
2023/01/03 03:55:12;;;;;;;0.13;0.13;;;6.60;99.90;;;;;;5012375;28;20246;-72
2023/01/03 03:58:00;;;;;;;0.00;0.00;;;6.60;99.90;;;;;;4994695;28;20222;-72
2023/01/03 04:00:30;;;;;;;0.00;0.00;;;6.50;99.90;;;;;;5004768;28;20175;-73
2023/01/03 04:02:58;;;;;;;0.00;0.00;;;6.50;99.90;;;;;;5012827;28;20361;-72
2023/01/03 04:05:26;;;;;;;0.00;0.00;;;6.50;99.90;;;;;;5012429;28;20182;-72
2023/01/03 04:07:52;;;;;;;0.00;0.00;;;6.50;99.90;;;;;;5012192;28;20183;-72
2023/01/03 04:10:19;;;;;;;0.55;0.55;;;6.50;99.90;;;;;;5012495;28;20206;-72
2023/01/03 04:12:49;;;;;;;0.00;0.00;;;6.50;99.90;;;;;;5012612;28;20182;-73
2023/01/03 04:15:15;;;;;;;0.10;0.10;;;6.40;99.90;;;;;;5012359;28;20193;-73
2023/01/03 04:17:41;;;;;;;0.00;0.00;;;6.40;99.90;;;;;;5012690;28;20218;-72
2023/01/03 04:20:07;;;;;;;0.00;0.00;;;6.40;99.90;;;;;;5012368;28;20266;-72
2023/01/03 04:22:33;;;;;;;0.00;0.00;;;6.40;99.90;;;;;;5012305;28;20174;-72
2023/01/03 04:24:58;;;;;;;0.00;0.00;;;6.40;99.90;;;;;;5012086;28;20201;-73
2023/01/03 04:27:24;;;;;;;0.03;0.03;;;6.40;99.90;;;;;;5012583;28;20737;-73
2023/01/03 04:29:49;;;;;;;0.00;0.00;;;6.40;99.90;;;;;;4994468;28;20222;-73
2023/01/03 04:32:15;;;;;;;0.00;0.00;;;6.40;99.90;;;;;;5012439;28;20262;-73
2023/01/03 04:34:40;;;;;;;0.00;0.00;;;6.40;99.90;;;;;;5011819;28;20692;-73
2023/01/03 04:37:06;;;;;;;0.00;0.00;;;6.40;99.90;;;;;;5012095;28;20226;-72
2023/01/03 04:39:31;;;;;;;0.00;0.00;;;6.30;99.90;;;;;;5012344;28;20182;-72
2023/01/03 04:41:57;;;;;;;0.00;0.00;;;6.30;99.90;;;;;;5011626;28;20657;-72
2023/01/03 04:44:22;;;;;;;0.25;0.20;;;6.30;99.90;;;;;;5010666;28;20637;-73
2023/01/03 04:46:48;;;;;;;0.57;0.57;;;6.20;99.90;;;;;;4994074;28;20649;-73
2023/01/03 04:49:14;;;;;;;0.52;0.52;;;6.20;99.90;;;;;;5011444;28;20258;-72
2023/01/03 04:51:39;;;;;;;0.63;0.63;;;6.20;99.90;;;;;;5010254;28;20218;-73
2023/01/03 04:54:06;;;;;;;0.00;0.00;;;6.10;99.90;;;;;;4994255;28;20250;-73
2023/01/03 04:56:34;;;;;;;0.10;0.10;;;6.10;99.90;;;;;;5003088;28;20230;-73
2023/01/03 04:59:00;;;;;;;0.15;0.15;;;6.10;99.90;;;;;;4994070;28;20183;-72
2023/01/03 05:01:26;;;;;;;0.20;0.20;;;6.00;99.90;;;;;;5011985;28;20182;-71
2023/01/03 05:03:59;;;;;;;0.13;0.13;;;6.00;99.90;;;;;;4993823;28;20293;-72
2023/01/03 05:06:26;;;;;;;0.10;0.10;;;6.00;99.90;;;;;;5011802;28;20190;-72
2023/01/03 05:08:51;;;;;;;0.00;0.00;;;6.00;99.90;;;;;;5011920;28;20313;-72
2023/01/03 05:11:17;;;;;;;0.00;0.00;;;6.00;99.90;;;;;;5003935;28;20613;-73
2023/01/03 05:13:43;;;;;;;0.00;0.00;;;6.00;99.90;;;;;;5007707;28;20175;-73
2023/01/03 05:16:11;;;;;;;0.00;0.00;;;5.90;99.90;;;;;;5010584;28;20210;-73
2023/01/03 05:18:38;;;;;;;0.47;0.43;;;5.90;99.90;;;;;;5010957;28;20187;-73
2023/01/03 05:26:40;;;;;;;0.00;0.00;;;5.80;99.90;;;;;;5011404;28;20695;-72
2023/01/03 05:29:08;;;;;;;0.00;0.00;;;5.80;99.90;;;;;;5009436;28;20199;-72
2023/01/03 05:31:33;;;;;;;0.40;0.40;;;5.70;99.90;;;;;;5006463;28;20178;-72
2023/01/03 05:33:59;;;;;;;0.00;0.00;;;5.70;99.90;;;;;;5010783;28;20187;-72
2023/01/03 05:36:25;;;;;;;0.22;0.22;;;5.70;99.90;;;;;;5011168;28;20194;-72
2023/01/03 05:38:50;;;;;;;0.00;0.00;;;5.70;99.90;;;;;;5010589;28;20672;-72
2023/01/03 05:41:58;;;;;;;0.00;0.00;;;5.70;99.90;;;;;;5011010;28;20175;-72
2023/01/03 05:44:05;;;;;;;0.00;0.00;;;5.70;99.90;;;;;;5010314;28;20194;-73
2023/01/03 05:46:31;;;;;;;0.00;0.00;;;5.70;99.90;;;;;;5011246;28;20262;-72
2023/01/03 05:48:56;;;;;;;0.00;0.00;;;5.70;99.90;;;;;;5010878;28;20273;-72
2023/01/03 05:51:22;;;;;;;0.73;0.73;;;5.70;99.90;;;;;;5009798;28;20638;-72
2023/01/03 05:53:47;;;;;;;0.15;0.15;;;5.70;99.90;;;;;;5010747;28;20269;-72
2023/01/03 05:56:13;;;;;;;0.40;0.20;;;5.70;99.90;;;;;;5010992;28;20704;-72
2023/01/03 05:58:41;;;;;;;0.00;0.00;;;5.60;99.90;;;;;;5010998;28;20274;-72
2023/01/03 06:01:11;;;;;;;0.00;0.00;;;5.60;99.90;;;;;;4993499;28;20281;-73
2023/01/03 06:03:37;;;;;;;0.00;0.00;;;5.60;99.90;;;;;;4992673;28;20219;-72
2023/01/03 06:06:03;;;;;;;0.20;0.20;;;5.60;99.90;;;;;;5010264;28;20542;-73
2023/01/03 06:08:29;;;;;;;0.00;0.00;;;5.50;99.90;;;;;;5010640;28;20190;-73
2023/01/03 06:10:55;;;;;;;0.00;0.00;;;5.50;99.90;;;;;;5010149;28;20179;-74
2023/01/03 06:13:22;;;;;;;0.00;0.00;;;5.50;99.90;;;;;;5010099;28;20189;-74
2023/01/03 06:17:53;;;;;;;0.00;0.00;;;5.50;99.90;;;;;;5013669;28;20270;-72
2023/01/03 06:18:35;;;;;;;0.00;0.00;;;5.50;99.90;;;;;;5001783;28;20190;-74
2023/01/03 06:21:04;;;;;;;0.00;0.00;;;5.50;99.90;;;;;;5013305;28;20187;-65
2023/01/03 06:23:29;;;;;;;0.00;0.00;;;5.50;99.90;;;;;;5014080;28;20182;-69
2023/01/03 06:25:55;;;;;;;0.00;0.00;;;5.50;99.90;;;;;;5014489;28;20179;-71
2023/01/03 06:28:20;;;;;;;0.10;0.10;;;5.50;99.90;;;;;;5013788;28;20193;-72
2023/01/03 06:30:46;;;;;;;0.10;0.10;;;5.50;99.90;;;;;;5013885;28;20574;-71
2023/01/03 06:33:11;;;;;;;0.00;0.00;;;5.50;99.90;;;;;;5014504;28;20179;-67
2023/01/03 06:35:38;;;;;;;0.00;0.00;;;5.50;99.90;;;;;;5013265;28;20507;-73
2023/01/03 06:38:03;;;;;;;0.00;0.00;;;5.40;99.90;;;;;;5014237;28;20218;-67
2023/01/03 06:40:29;;;;;;;0.00;0.00;;;5.40;99.90;;;;;;5013900;28;20185;-64
2023/01/03 06:42:54;;;;;;;0.00;0.00;;;5.40;99.90;;;;;;4996259;28;20217;-69
2023/01/03 06:53:36;;;;;;;0.00;0.00;;;5.30;99.90;;;;;;5013183;28;20684;-72
2023/01/03 06:56:03;;;;;;;0.00;0.00;;;5.30;99.90;;;;;;5013813;28;20211;-72
2023/01/03 06:58:28;;;;;;;0.00;0.00;;;5.30;99.90;;;;;;5009064;28;20214;-71
2023/01/03 07:00:56;;;;;;;0.00;0.00;;;5.30;99.90;;;;;;5013736;28;20211;-72
2023/01/03 07:03:21;;;;;;;0.00;0.00;;;5.30;99.90;;;;;;4995241;28;20233;-70
2023/01/03 07:05:47;;;;;;;0.00;0.00;;;5.30;99.90;;;;;;5001406;28;20175;-71
2023/01/03 07:08:13;;;;;;;0.00;0.00;;;5.30;99.90;;;;;;4994379;28;20219;-71
2023/01/03 07:10:38;;;;;;;0.00;0.00;;;5.30;99.90;;;;;;4977376;28;20553;-71
2023/01/03 07:15:49;;;;;;;2.72;0.63;;;5.30;99.90;;;;;;5013465;28;20213;-71
2023/01/03 07:18:15;;;;;;;0.00;0.00;;;5.30;99.90;;;;;;5013391;28;20667;-71
2023/01/03 07:20:44;;;;;;;0.00;0.00;;;5.30;99.90;;;;;;5012235;28;20202;-71
2023/01/03 07:23:11;;;;;;;0.00;0.00;;;5.40;99.90;;;;;;5001861;28;20216;-71
2023/01/03 07:25:40;;;;;;;0.00;0.00;;;5.40;99.90;;;;;;5011992;28;20171;-71
2023/01/03 07:28:10;;;;;;;0.00;0.00;;;5.40;99.90;;;;;;5004452;28;21106;-71
2023/01/03 07:30:38;;;;;;;0.00;0.00;;;5.50;99.90;;;;;;5019293;28;20566;-71
2023/01/03 07:33:03;;;;;;;0.00;0.00;;;5.50;99.90;;;;;;5011617;28;20247;-71
2023/01/03 07:35:34;;;;;;;0.00;0.00;;;5.50;99.90;;;;;;4988130;28;20187;-70
2023/01/03 07:38:00;;;;;;;0.28;0.28;;;5.60;99.90;;;;;;5010238;28;20214;-73
2023/01/03 07:40:26;;;;;;;0.00;0.00;;;5.60;99.90;;;;;;5013158;28;20214;-73
2023/01/03 07:45:42;;;;;;;0.00;0.00;;;5.60;99.90;;;;;;4993900;28;20183;-73
2023/01/03 07:48:08;;;;;;;0.00;0.00;;;5.70;99.90;;;;;;5007957;28;20189;-73
2023/01/03 07:50:34;;;;;;;0.00;0.00;;;5.70;99.90;;;;;;5012755;28;20178;-73
2023/01/03 07:53:00;;;;;;;0.00;0.00;;;5.70;99.90;;;;;;5011935;28;20685;-72
2023/01/03 07:55:27;;;;;;;0.00;0.00;;;5.80;99.90;;;;;;5007526;28;20183;-72
2023/01/03 07:57:53;;;;;;;0.15;0.10;;;5.80;99.90;;;;;;4993327;28;20211;-73
2023/01/03 08:00:19;;;;;;;0.00;0.00;;;5.90;99.90;;;;;;5005007;28;20175;-73
2023/01/03 08:02:44;;;;;;;0.22;0.22;;;5.90;99.90;;;;;;5011057;28;20186;-73
2023/01/03 08:05:10;;;;;;;0.00;0.00;;;5.90;99.90;;;;;;5013060;28;20206;-72
2023/01/03 08:07:35;;;;;;;0.00;0.00;;;6.00;99.90;;;;;;5012618;28;20183;-73
2023/01/03 08:15:29;;;;;;;0.00;0.00;;;6.00;99.90;;;;;;5001101;28;20261;-70
2023/01/03 08:17:55;;;;;;;0.00;0.00;;;6.10;99.90;;;;;;5012575;28;20235;-69
2023/01/03 08:20:20;;;;;;;0.10;0.10;;;6.10;99.90;;;;;;5012840;28;20182;-69
2023/01/03 08:22:46;;;;;;;0.00;0.00;;;6.20;99.90;;;;;;5002830;28;20225;-70
2023/01/03 08:25:11;;;;;;;0.00;0.00;;;6.20;99.90;;;;;;5009672;28;20225;-70
2023/01/03 08:27:37;;;;;;;0.08;0.08;;;6.20;99.90;;;;;;5000407;28;20171;-70
2023/01/03 08:30:03;;;;;;;0.10;0.10;;;6.20;99.90;;;;;;5012415;28;20179;-70
2023/01/03 08:32:31;;;;;;;0.00;0.00;;;6.20;99.90;;;;;;5011747;28;20237;-71
2023/01/03 08:34:57;;;;;;;0.00;0.00;;;6.20;99.90;;;;;;5010045;28;20237;-71
2023/01/03 08:37:22;;;;;;;0.00;0.00;;;6.30;99.90;;;;;;4993739;28;20203;-70
2023/01/03 08:39:55;;;;;;;0.10;0.10;;;6.30;99.90;;;;;;5010815;28;20227;-70
2023/01/03 08:42:22;;;;;;;0.10;0.10;;;6.30;99.90;;;;;;5004441;28;20228;-69
2023/01/03 08:44:49;;;;;;;0.17;0.17;;;6.40;99.90;;;;;;5011915;28;20191;-69
2023/01/03 08:47:16;;;;;;;0.00;0.00;;;6.50;99.90;;;;;;5012185;28;20179;-70
2023/01/03 08:49:42;;;;;;;0.00;0.00;;;6.50;99.90;;;;;;4995006;28;20666;-69
2023/01/03 08:52:07;;;;;;;0.28;0.28;;;6.60;99.90;;;;;;4992441;28;20191;-70
2023/01/03 08:54:33;;;;;;;0.00;0.00;;;6.60;99.90;;;;;;4991973;28;20225;-69
2023/01/03 08:56:59;;;;;;;0.10;0.10;;;6.60;99.90;;;;;;5013401;28;20226;-69
2023/01/03 08:59:25;;;;;;;0.03;0.03;;;6.60;99.90;;;;;;4994345;28;20550;-69
2023/01/03 09:01:50;;;;;;;0.00;0.00;;;6.60;99.90;;;;;;5011661;28;20171;-70
2023/01/03 09:04:16;;;;;;;0.35;0.35;;;6.60;99.90;;;;;;5011900;28;20637;-69
2023/01/03 09:06:41;;;;;;;0.75;0.73;;;6.60;99.90;;;;;;5011725;28;20182;-69
2023/01/03 09:09:08;;;;;;;0.20;0.20;;;6.60;99.90;;;;;;4994434;28;20186;-70
2023/01/03 09:11:34;;;;;;;0.93;0.85;;;6.60;99.90;;;;;;5012037;28;20217;-69
2023/01/03 09:13:59;;;;;;;0.20;0.17;;;6.70;99.90;;;;;;5012020;28;20565;-71
2023/01/03 09:16:25;;;;;;;0.17;0.17;;;6.70;99.90;;;;;;5012389;28;20206;-71
2023/01/03 09:18:51;;;;;;;0.43;0.43;;;6.70;99.90;;;;;;5012239;28;20193;-70
2023/01/03 09:21:16;;;;;;;0.10;0.10;;;6.80;99.90;;;;;;4994662;28;20281;-69
2023/01/03 09:23:42;;;;;;;0.75;0.75;;;6.80;99.90;;;;;;5011939;28;20175;-69
2023/01/03 09:26:08;;;;;;;0.00;0.00;;;6.90;99.90;;;;;;4994433;28;20175;-69
2023/01/03 09:28:34;;;;;;;0.15;0.15;;;7.00;99.90;;;;;;5017456;28;20181;-70
2023/01/03 09:30:59;;;;;;;0.25;0.25;;;7.00;99.90;;;;;;5011596;28;20186;-70
2023/01/03 09:33:25;;;;;;;0.00;0.00;;;7.10;99.90;;;;;;5011470;28;20273;-70
2023/01/03 09:35:54;;;;;;;0.00;0.00;;;7.10;99.90;;;;;;5011337;28;20266;-70
2023/01/03 09:38:21;;;;;;;0.38;0.38;;;7.20;99.90;;;;;;4999189;28;20200;-70
2023/01/03 09:40:54;;;;;;;2.13;0.80;;;7.20;99.90;;;;;;4993913;28;20195;-70
2023/01/03 09:43:21;;;;;;;0.77;0.77;;;7.20;99.90;;;;;;4993593;28;20210;-70
2023/01/03 09:45:53;;;;;;;0.38;0.38;;;7.20;99.90;;;;;;5020010;28;20205;-70
2023/01/03 09:48:33;;;;;;;0.00;0.00;;;7.30;99.90;;;;;;5014348;28;20186;-70
2023/01/03 09:50:59;;;;;;;0.00;0.00;;;7.30;99.90;;;;;;5021079;28;20264;-70
2023/01/03 10:05:10;;;;;;;0.47;0.47;;;7.70;99.90;;;;;;4995353;28;20195;-73
2023/01/03 10:07:54;;;;;;;0.40;0.40;;;7.80;99.90;;;;;;4999807;28;20544;-69
2023/01/03 10:10:31;;;;;;;1.42;1.33;;;8.00;99.90;;;;;;4978012;28;20646;-70
2023/01/03 10:13:16;;;;;;;0.40;0.17;;;8.30;99.90;;;;;;4995189;28;20509;-69
2023/01/03 10:15:59;;;;;;;0.32;0.32;;;8.60;99.90;;;;;;4995184;28;20179;-70
2023/01/03 10:18:34;;;;;;;0.00;0.00;;;8.80;99.90;;;;;;4997383;28;20183;-69
2023/01/03 10:21:15;;;;;;;0.68;0.65;;;9.10;99.90;;;;;;5016437;28;20181;-71
2023/01/03 10:23:41;;;;;;;0.20;0.20;;;9.40;99.90;;;;;;5034324;28;20174;-70
2023/01/03 10:26:11;;;;;;;0.00;0.00;;;9.60;99.90;;;;;;5034182;28;20217;-69
2023/01/03 10:28:40;;;;;;;0.35;0.35;;;9.90;99.90;;;;;;5028946;28;20178;-70
2023/01/03 10:31:30;;;;;;;0.90;0.10;;;10.20;99.90;;;;;;4996381;28;20270;-72
2023/01/03 10:33:56;;;;;;;0.00;0.00;;;10.40;99.90;;;;;;5013254;28;20237;-71
2023/01/03 10:36:21;;;;;;;0.00;0.00;;;10.30;99.90;;;;;;5008501;28;20666;-70
2023/01/03 10:38:47;;;;;;;0.00;0.00;;;10.30;99.90;;;;;;4994456;28;20176;-70
2023/01/03 10:41:21;;;;;;;0.10;0.10;;;10.30;99.90;;;;;;4988348;28;20191;-71
2023/01/03 10:43:58;;;;;;;0.00;0.00;;;10.30;99.90;;;;;;5013342;28;20186;-70
2023/01/03 10:46:26;;;;;;;0.00;0.00;;;10.30;99.90;;;;;;5003965;28;20178;-71
2023/01/03 10:48:54;;;;;;;0.00;0.00;;;10.30;99.90;;;;;;5013796;28;20571;-71
2023/01/03 10:51:37;;;;;;;0.00;0.00;;;10.40;99.90;;;;;;5014324;28;20183;-71
2023/01/03 10:54:17;;;;;;;0.00;0.00;;;10.40;99.90;;;;;;5013477;28;20218;-71
2023/01/03 10:56:45;;;;;;;0.00;0.00;;;10.50;99.90;;;;;;5013956;28;20288;-71
2023/01/03 10:59:29;;;;;;;0.00;0.00;;;10.50;99.90;;;;;;5011765;28;20187;-71
2023/01/03 11:01:56;;;;;;;0.00;0.00;;;10.60;99.90;;;;;;5012685;28;20178;-70
2023/01/03 11:04:22;;;;;;;0.00;0.00;;;10.60;99.90;;;;;;4995544;28;20179;-71
2023/01/03 11:07:00;;;;;;;0.00;0.00;;;10.60;99.90;;;;;;5013819;28;20183;-71
2023/01/03 11:09:48;;;;;;;0.00;0.00;;;10.70;99.90;;;;;;5014043;28;20183;-71
2023/01/03 11:12:33;;;;;;;0.00;0.00;;;10.70;99.90;;;;;;5014166;28;20245;-71
2023/01/03 11:15:00;;;;;;;0.00;0.00;;;10.80;99.90;;;;;;5014153;28;20190;-71
2023/01/03 11:17:27;;;;;;;0.00;0.00;;;10.80;99.90;;;;;;5014030;28;20233;-72
2023/01/03 11:19:54;;;;;;;0.03;0.03;;;10.90;99.90;;;;;;5013868;28;20179;-72
2023/01/03 11:22:25;;;;;;;0.00;0.00;;;10.90;99.90;;;;;;5013829;28;20214;-72
2023/01/03 11:25:08;;;;;;;0.00;0.00;;;10.90;99.90;;;;;;5013671;28;20634;-71
2023/01/03 11:27:59;;;;;;;0.00;0.00;;;10.90;99.90;;;;;;5013387;28;20725;-71
2023/01/03 11:30:49;;;;;;;0.00;0.00;;;11.00;99.90;;;;;;5013442;28;20765;-71
2023/01/03 11:33:46;;;;;;;0.00;0.00;;;11.10;99.90;;;;;;5013782;28;20187;-72
2023/01/03 11:36:19;;;;;;;0.00;0.00;;;11.00;99.90;;;;;;5012857;28;20223;-71
2023/01/03 11:39:35;;;;;;;0.00;0.00;;;11.10;99.90;;;;;;4992196;28;20667;-71
2023/01/03 11:42:06;;;;;;;0.00;0.00;;;11.10;99.90;;;;;;5011279;28;20228;-71
2023/01/03 11:44:45;;;;;;;0.00;0.00;;;11.20;99.90;;;;;;5012430;28;20178;-72
2023/01/03 11:47:20;;;;;;;0.00;0.00;;;11.20;99.90;;;;;;5013518;28;20175;-70
2023/01/03 11:50:26;;;;;;;0.00;0.00;;;11.20;99.90;;;;;;5011953;28;20315;-71
2023/01/03 11:53:02;;;;;;;0.00;0.00;;;11.20;99.90;;;;;;4987842;28;20261;-72
2023/01/03 11:55:44;;;;;;;0.00;0.00;;;11.20;99.90;;;;;;5011212;28;20657;-72
2023/01/03 11:58:28;;;;;;;0.00;0.00;;;11.20;99.90;;;;;;5011395;28;20218;-72
2023/01/03 12:01:16;;;;;;;0.00;0.00;;;11.30;99.90;;;;;;5010520;28;20181;-72
2023/01/03 12:04:10;;;;;;;0.00;0.00;;;11.40;99.90;;;;;;5011555;28;20187;-73
2023/01/03 12:06:55;;;;;;;0.00;0.00;;;11.40;99.90;;;;;;4995296;28;20172;-72
2023/01/03 12:09:45;;;;;;;0.00;0.00;;;11.50;99.90;;;;;;5010416;28;20229;-75
2023/01/03 12:12:44;;;;;;;0.08;0.08;;;11.50;99.90;;;;;;5012841;28;20182;-74
2023/01/03 12:15:11;;;;;;;0.00;0.00;;;11.60;99.90;;;;;;5008181;28;20176;-72
2023/01/03 12:17:49;;;;;;;0.00;0.00;;;11.70;99.90;;;;;;4977162;28;20226;-77
2023/01/03 12:20:30;;;;;;;0.00;0.00;;;11.70;99.90;;;;;;4993439;28;20225;-73
2023/01/03 12:23:22;;;;;;;0.00;0.00;;;11.80;99.90;;;;;;4994379;28;20171;-76
2023/01/03 12:25:54;;;;;;;0.00;0.00;;;11.80;99.90;;;;;;5016887;28;20174;-74
2023/01/03 12:28:26;;;;;;;0.00;0.00;;;11.80;99.90;;;;;;5016092;28;20589;-74
2023/01/03 12:30:55;;;;;;;0.00;0.00;;;11.80;99.90;;;;;;5012277;28;20182;-75
2023/01/03 12:33:41;;;;;;;0.00;0.00;;;11.80;99.90;;;;;;5011599;28;20179;-75
2023/01/03 12:36:26;;;;;;;0.00;0.00;;;11.80;99.90;;;;;;5009213;28;20189;-75
2023/01/03 12:39:27;;;;;;;0.00;0.00;;;11.90;99.90;;;;;;4994467;28;20190;-75
2023/01/03 12:42:18;;;;;;;0.00;0.00;;;11.90;99.90;;;;;;4960387;28;20209;-72
2023/01/03 12:44:46;;;;;;;0.00;0.00;;;12.00;99.90;;;;;;5010461;28;20175;-74
2023/01/03 12:47:47;;;;;;;0.00;0.00;;;12.10;99.90;;;;;;5011827;28;20186;-75
2023/01/03 12:50:31;;;;;;;0.00;0.00;;;12.10;99.90;;;;;;4994375;28;20188;-74
2023/01/03 12:53:25;;;;;;;0.00;0.00;;;12.10;99.90;;;;;;4993223;28;20230;-75
2023/01/03 12:55:50;;;;;;;0.15;0.15;;;12.10;99.90;;;;;;4985044;28;20581;-75
2023/01/03 12:58:45;;;;;;;0.00;0.00;;;12.10;99.90;;;;;;5012359;28;20215;-75
2023/01/03 13:01:16;;;;;;;0.00;0.00;;;12.10;99.90;;;;;;5011773;28;20183;-75
2023/01/03 13:03:51;;;;;;;0.00;0.00;;;12.00;99.90;;;;;;5011978;28;20521;-75
2023/01/03 13:06:22;;;;;;;0.00;0.00;;;12.00;99.90;;;;;;5002243;28;20182;-75
2023/01/03 13:08:52;;;;;;;0.00;0.00;;;12.00;99.90;;;;;;4982545;28;20294;-75
2023/01/03 13:11:24;;;;;;;0.00;0.00;;;11.90;99.90;;;;;;5011442;28;20273;-75
2023/01/03 13:14:03;;;;;;;0.00;0.00;;;11.90;99.90;;;;;;4993289;28;20178;-75
2023/01/03 13:16:35;;;;;;;0.00;0.00;;;11.80;99.90;;;;;;4994680;28;20210;-74
2023/01/03 13:19:20;;;;;;;0.00;0.00;;;11.70;99.90;;;;;;5010997;28;20221;-75
2023/01/03 13:21:54;;;;;;;0.00;0.00;;;11.70;99.90;;;;;;4998745;28;20318;-74
2023/01/03 13:24:43;;;;;;;0.00;0.00;;;11.70;99.90;;;;;;5010183;28;20245;-74
2023/01/03 13:27:18;;;;;;;0.00;0.00;;;11.70;99.90;;;;;;5013441;28;20187;-75
2023/01/03 13:29:50;;;;;;;0.10;0.10;;;11.50;99.90;;;;;;5013148;28;20672;-74
2023/01/03 13:32:24;;;;;;;0.00;0.00;;;11.40;99.90;;;;;;5004886;28;20304;-75
2023/01/03 13:35:16;;;;;;;0.00;0.00;;;11.40;99.90;;;;;;5015111;28;20186;-75
2023/01/03 13:37:46;;;;;;;0.00;0.00;;;11.40;99.90;;;;;;4978151;28;20640;-74
2023/01/03 13:40:32;;;;;;;0.00;0.00;;;11.40;99.90;;;;;;5014769;28;20520;-75
2023/01/03 13:43:07;;;;;;;0.00;0.00;;;11.40;99.90;;;;;;5013912;28;20245;-75
2023/01/03 13:45:32;;;;;;;0.00;0.00;;;11.40;99.90;;;;;;5012517;28;20193;-74
2023/01/03 13:48:20;;;;;;;0.00;0.00;;;11.30;99.90;;;;;;5014104;28;20167;-75
2023/01/03 13:51:13;;;;;;;0.00;0.00;;;11.30;99.90;;;;;;5005524;28;20182;-74
2023/01/03 13:53:50;;;;;;;0.00;0.00;;;11.20;99.90;;;;;;5013555;28;20307;-71
2023/01/03 13:56:16;;;;;;;0.00;0.00;;;11.10;99.90;;;;;;5015127;28;20638;-73
2023/01/03 13:58:49;;;;;;;0.00;0.00;;;11.20;99.90;;;;;;5013384;28;20189;-73
2023/01/03 14:01:41;;;;;;;0.00;0.00;;;11.20;99.90;;;;;;5006443;28;20180;-70
2023/01/03 14:04:34;;;;;;;0.00;0.00;;;11.00;99.90;;;;;;4997867;28;20201;-73
2023/01/03 14:07:37;;;;;;;0.00;0.00;;;10.90;99.90;;;;;;5011114;28;20183;-76
2023/01/03 14:10:48;;;;;;;0.00;0.00;;;10.80;99.90;;;;;;5015143;28;20192;-73
2023/01/03 14:13:34;;;;;;;0.00;0.00;;;10.70;99.90;;;;;;5014540;28;20574;-71
2023/01/03 14:16:29;;;;;;;0.00;0.00;;;10.60;99.90;;;;;;5014975;28;20535;-72
2023/01/03 14:19:05;;;;;;;0.00;0.00;;;10.50;99.90;;;;;;5013412;28;20190;-72
2023/01/03 14:22:07;;;;;;;0.40;0.40;;;10.50;99.90;;;;;;5015199;28;20178;-72